createdAt,value
2023-02-02T00:01:38.521Z,3.70
2023-02-02T00:04:05.418Z,3.60
2023-02-02T00:06:33.301Z,3.70
2023-02-02T00:09:02.054Z,3.60
2023-02-02T00:11:29.026Z,3.60
2023-02-02T00:13:55.917Z,3.60
2023-02-02T00:16:42.095Z,3.70
2023-02-02T00:19:17.467Z,3.60
2023-02-02T00:21:45.003Z,3.70
2023-02-02T00:24:14.312Z,3.70
2023-02-02T00:26:42.709Z,3.70
2023-02-02T00:29:18.366Z,3.70
2023-02-02T00:31:45.729Z,3.70
2023-02-02T00:34:13.862Z,3.70
2023-02-02T00:36:40.920Z,3.70
2023-02-02T00:39:08.860Z,3.70
2023-02-02T00:41:35.638Z,3.70
2023-02-02T00:44:21.122Z,3.70
2023-02-02T00:46:47.833Z,3.70
2023-02-02T00:49:14.545Z,3.80
2023-02-02T00:51:41.284Z,3.70
2023-02-02T00:54:08.203Z,3.70
2023-02-02T00:56:35.020Z,3.70
2023-02-02T00:59:02.111Z,3.70
2023-02-02T01:01:29.099Z,3.70
2023-02-02T01:03:55.924Z,3.70
2023-02-02T01:06:23.169Z,3.70
2023-02-02T01:08:52.615Z,3.70
2023-02-02T01:11:19.675Z,3.70
2023-02-02T01:13:46.678Z,3.70
2023-02-02T01:16:13.596Z,3.70
2023-02-02T01:18:40.558Z,3.70
2023-02-02T01:21:10.063Z,3.70
2023-02-02T01:23:38.501Z,3.70
2023-02-02T01:26:08.569Z,3.70
2023-02-02T01:28:36.005Z,3.60
2023-02-02T01:31:12.565Z,3.70
2023-02-02T01:33:40.347Z,3.70
2023-02-02T01:36:11.060Z,3.60
2023-02-02T01:38:38.334Z,3.60
2023-02-02T01:41:06.229Z,3.60
2023-02-02T01:43:45.603Z,3.60
2023-02-02T01:46:15.139Z,3.60
2023-02-02T01:48:46.482Z,3.60
2023-02-02T01:51:20.663Z,3.50
2023-02-02T01:53:51.123Z,3.50
2023-02-02T01:56:28.889Z,3.50
2023-02-02T01:58:56.361Z,3.50
2023-02-02T02:01:23.662Z,3.50
2023-02-02T02:03:50.647Z,3.50
2023-02-02T02:06:20.040Z,3.50
2023-02-02T02:08:52.722Z,3.50
2023-02-02T02:11:20.880Z,3.50
2023-02-02T02:14:06.771Z,3.40
2023-02-02T02:17:04.144Z,3.70
2023-02-02T02:20:04.641Z,3.50
2023-02-02T02:23:21.305Z,3.60
2023-02-02T02:26:35.038Z,3.60
2023-02-02T02:29:04.663Z,3.50
2023-02-02T02:31:57.438Z,3.50
2023-02-02T02:35:04.344Z,3.60
2023-02-02T02:37:46.088Z,3.50
2023-02-02T02:40:28.093Z,3.60
2023-02-02T02:43:02.165Z,3.50
2023-02-02T02:45:29.687Z,3.60
2023-02-02T02:47:57.192Z,3.60
2023-02-02T02:50:24.342Z,3.60
2023-02-02T02:53:00.653Z,3.60
2023-02-02T02:55:48.906Z,3.60
2023-02-02T02:58:53.996Z,3.60
2023-02-02T03:01:29.741Z,3.60
2023-02-02T03:04:24.898Z,3.60
2023-02-02T03:07:00.308Z,3.60
2023-02-02T03:09:34.970Z,3.60
2023-02-02T03:12:02.362Z,3.60
2023-02-02T03:14:29.423Z,3.60
2023-02-02T03:16:56.183Z,3.60
2023-02-02T03:19:23.103Z,3.60
2023-02-02T03:21:49.933Z,3.60
2023-02-02T03:24:16.771Z,3.60
2023-02-02T03:26:44.273Z,3.60
2023-02-02T03:29:11.312Z,3.60
2023-02-02T03:31:38.344Z,3.60
2023-02-02T03:34:05.182Z,3.60
2023-02-02T03:36:32.063Z,3.60
2023-02-02T03:38:59.084Z,3.60
2023-02-02T03:41:25.973Z,3.60
2023-02-02T03:43:52.921Z,3.70
2023-02-02T03:46:19.818Z,3.70
2023-02-02T03:48:46.669Z,3.70
2023-02-02T03:51:14.860Z,3.70
2023-02-02T03:53:47.612Z,3.70
2023-02-02T03:56:15.508Z,3.70
2023-02-02T03:58:42.484Z,3.70
2023-02-02T04:01:13.357Z,3.70
2023-02-02T04:03:40.305Z,3.70
2023-02-02T04:06:07.510Z,3.70
2023-02-02T04:08:34.680Z,3.70
2023-02-02T04:11:01.774Z,3.70
2023-02-02T04:13:28.643Z,3.70
2023-02-02T04:16:00.089Z,3.70
2023-02-02T04:18:27.245Z,3.70
2023-02-02T04:21:01.833Z,3.70
2023-02-02T04:23:29.834Z,3.80
2023-02-02T04:25:57.469Z,3.70
2023-02-02T04:28:25.311Z,3.70
2023-02-02T04:30:53.830Z,3.70
2023-02-02T04:33:22.015Z,3.70
2023-02-02T04:35:48.979Z,3.70
2023-02-02T04:38:16.124Z,3.70
2023-02-02T04:40:45.119Z,3.70
2023-02-02T04:43:12.465Z,3.80
2023-02-02T04:45:39.847Z,3.80
2023-02-02T04:48:06.749Z,3.70
2023-02-02T04:50:33.728Z,3.80
2023-02-02T04:53:03.218Z,3.80
2023-02-02T04:55:30.010Z,3.70
2023-02-02T04:57:56.946Z,3.80
2023-02-02T05:00:23.887Z,3.80
2023-02-02T05:02:50.767Z,3.80
2023-02-02T05:05:18.192Z,3.80
2023-02-02T05:07:45.018Z,3.80
2023-02-02T05:10:12.455Z,3.80
2023-02-02T05:12:39.348Z,3.80
2023-02-02T05:15:06.800Z,3.80
2023-02-02T05:17:33.699Z,3.70
2023-02-02T05:20:00.662Z,3.70
2023-02-02T05:22:27.783Z,3.80
2023-02-02T05:24:54.553Z,3.80
2023-02-02T05:27:21.538Z,3.70
2023-02-02T05:29:48.425Z,3.80
2023-02-02T05:32:15.750Z,3.80
2023-02-02T05:34:42.994Z,3.80
2023-02-02T05:37:09.794Z,3.70
2023-02-02T05:39:36.620Z,3.70
2023-02-02T05:42:03.525Z,3.70
2023-02-02T05:44:30.438Z,3.80
2023-02-02T05:46:57.225Z,3.70
2023-02-02T05:49:24.047Z,3.70
2023-02-02T05:51:55.045Z,3.80
2023-02-02T05:54:21.880Z,3.70
2023-02-02T05:56:50.239Z,3.70
2023-02-02T05:59:18.572Z,3.70
2023-02-02T06:01:46.878Z,3.70
2023-02-02T06:04:14.405Z,3.70
2023-02-02T06:06:42.247Z,3.70
2023-02-02T06:09:09.322Z,3.60
2023-02-02T06:11:36.230Z,3.70
2023-02-02T06:14:03.196Z,3.70
2023-02-02T06:16:30.088Z,3.70
2023-02-02T06:18:57.099Z,3.70
2023-02-02T06:21:24.800Z,3.70
2023-02-02T06:23:51.873Z,3.70
2023-02-02T06:26:19.434Z,3.70
2023-02-02T06:28:50.405Z,3.70
2023-02-02T06:31:19.465Z,3.70
2023-02-02T06:33:47.673Z,3.70
2023-02-02T06:36:14.649Z,3.70
2023-02-02T06:38:41.547Z,3.70
2023-02-02T06:41:08.411Z,3.70
2023-02-02T06:43:35.256Z,3.70
2023-02-02T06:46:02.378Z,3.70
2023-02-02T06:48:29.250Z,3.70
2023-02-02T06:50:59.755Z,3.70
2023-02-02T06:53:27.192Z,3.70
2023-02-02T06:55:58.701Z,3.70
2023-02-02T06:58:25.487Z,3.70
2023-02-02T07:00:52.733Z,3.70
2023-02-02T07:03:23.375Z,3.70
2023-02-02T07:05:50.284Z,3.70
2023-02-02T07:08:17.637Z,3.70
2023-02-02T07:11:11.897Z,3.80
2023-02-02T07:13:31.805Z,3.70
2023-02-02T07:15:58.655Z,3.70
2023-02-02T07:18:25.617Z,3.70
2023-02-02T07:21:01.241Z,3.70
2023-02-02T07:23:29.160Z,3.70
2023-02-02T07:26:08.774Z,3.60
2023-02-02T07:28:36.360Z,3.70
2023-02-02T07:31:15.536Z,3.70
2023-02-02T07:33:43.708Z,3.70
2023-02-02T07:36:12.123Z,3.70
2023-02-02T07:38:42.072Z,3.70
2023-02-02T07:41:09.283Z,3.70
2023-02-02T07:43:36.976Z,3.70
2023-02-02T07:46:06.639Z,3.70
2023-02-02T07:48:33.786Z,3.70
2023-02-02T07:51:02.128Z,3.70
2023-02-02T07:53:30.222Z,3.70
2023-02-02T07:56:08.009Z,3.80
2023-02-02T07:58:35.001Z,3.70
2023-02-02T08:01:06.387Z,3.70
2023-02-02T08:03:34.044Z,3.70
2023-02-02T08:06:03.221Z,3.70
2023-02-02T08:08:29.980Z,3.70
2023-02-02T08:10:56.795Z,3.70
2023-02-02T08:13:23.567Z,3.70
2023-02-02T08:15:50.470Z,3.80
2023-02-02T08:18:17.385Z,3.80
2023-02-02T08:20:44.268Z,3.80
2023-02-02T08:23:15.670Z,3.80
2023-02-02T08:25:42.897Z,3.80
2023-02-02T08:28:09.684Z,3.90
2023-02-02T08:30:36.479Z,3.90
2023-02-02T08:33:03.462Z,4.00
2023-02-02T08:35:30.499Z,4.00
2023-02-02T08:37:57.304Z,4.10
2023-02-02T08:40:25.391Z,4.00
2023-02-02T08:42:55.959Z,4.10
2023-02-02T08:46:04.016Z,4.20
2023-02-02T08:48:12.264Z,4.10
2023-02-02T08:50:39.665Z,4.20
2023-02-02T08:53:06.653Z,4.20
2023-02-02T08:55:33.443Z,4.30
2023-02-02T08:58:03.074Z,4.20
2023-02-02T09:00:29.883Z,4.20
2023-02-02T09:02:56.638Z,4.30
2023-02-02T09:05:24.095Z,4.30
2023-02-02T09:07:51.155Z,4.30
2023-02-02T09:10:18.017Z,4.30
2023-02-02T09:12:45.017Z,4.30
2023-02-02T09:15:12.810Z,4.20
2023-02-02T09:17:39.810Z,4.30
2023-02-02T09:20:07.029Z,4.30
2023-02-02T09:22:33.885Z,4.30
2023-02-02T09:25:00.670Z,4.30
2023-02-02T09:27:27.517Z,4.20
2023-02-02T09:29:54.458Z,4.20
2023-02-02T09:32:21.258Z,4.30
2023-02-02T09:34:48.270Z,4.30
2023-02-02T09:37:15.190Z,4.30
2023-02-02T09:39:42.010Z,4.30
2023-02-02T09:42:37.325Z,4.30
2023-02-02T09:45:07.528Z,4.30
2023-02-02T09:47:53.467Z,4.40
2023-02-02T09:50:23.289Z,4.40
2023-02-02T09:53:00.683Z,4.40
2023-02-02T09:56:06.096Z,4.40
2023-02-02T09:58:45.429Z,4.40
2023-02-02T10:01:17.724Z,4.40
2023-02-02T10:03:49.124Z,4.40
2023-02-02T10:06:34.963Z,4.40
2023-02-02T10:09:24.192Z,4.40
2023-02-02T10:12:28.663Z,4.40
2023-02-02T10:15:12.759Z,4.40
2023-02-02T10:18:07.619Z,4.40
2023-02-02T10:20:43.719Z,4.40
2023-02-02T10:23:28.239Z,4.40
2023-02-02T10:26:05.663Z,4.30
2023-02-02T10:28:44.560Z,4.40
2023-02-02T10:31:31.207Z,4.40
2023-02-02T10:34:20.952Z,4.50
2023-02-02T10:36:54.054Z,4.40
2023-02-02T10:39:51.430Z,4.40
2023-02-02T10:42:28.033Z,4.40
2023-02-02T10:45:02.277Z,4.60
2023-02-02T10:47:35.121Z,4.40
2023-02-02T10:50:14.281Z,4.40
2023-02-02T10:52:46.556Z,4.40
2023-02-02T10:55:29.132Z,4.50
2023-02-02T10:58:05.072Z,4.40
2023-02-02T11:00:58.099Z,4.50
2023-02-02T11:03:31.103Z,4.50
2023-02-02T11:06:22.968Z,4.50
2023-02-02T11:08:56.786Z,4.50
2023-02-02T11:11:27.791Z,4.50
2023-02-02T11:14:15.228Z,4.60
2023-02-02T11:16:45.452Z,4.50
2023-02-02T11:19:19.613Z,4.50
2023-02-02T11:21:50.422Z,4.50
2023-02-02T11:24:39.835Z,4.50
2023-02-02T11:27:31.173Z,4.50
2023-02-02T11:29:59.712Z,4.50
2023-02-02T11:32:29.878Z,4.50
2023-02-02T11:35:08.658Z,4.40
2023-02-02T11:37:37.711Z,4.60
2023-02-02T11:40:52.263Z,4.40
2023-02-02T11:43:28.514Z,4.50
2023-02-02T11:46:04.197Z,4.50
2023-02-02T11:48:48.728Z,4.50
2023-02-02T11:51:23.651Z,4.60
2023-02-02T11:54:00.237Z,4.60
2023-02-02T11:56:27.391Z,4.60
2023-02-02T11:58:56.485Z,4.60
2023-02-02T12:01:35.635Z,4.60
2023-02-02T12:04:32.666Z,4.60
2023-02-02T12:06:59.397Z,4.60
2023-02-02T12:09:26.451Z,4.60
2023-02-02T12:11:59.238Z,4.70
2023-02-02T12:15:08.267Z,4.60
2023-02-02T12:17:40.560Z,4.70
2023-02-02T12:20:26.588Z,4.70
2023-02-02T12:23:12.295Z,4.70
2023-02-02T12:26:05.836Z,4.80
2023-02-02T12:28:44.523Z,4.80
2023-02-02T12:31:16.994Z,4.80
2023-02-02T12:34:02.043Z,4.80
2023-02-02T12:36:53.056Z,4.90
2023-02-02T12:39:30.046Z,4.90
2023-02-02T12:42:15.539Z,4.90
2023-02-02T12:45:15.810Z,4.90
2023-02-02T12:47:54.373Z,4.90
2023-02-02T12:50:32.431Z,4.90
2023-02-02T12:53:35.288Z,4.90
2023-02-02T12:56:18.718Z,4.90
2023-02-02T12:58:57.535Z,5.00
2023-02-02T13:01:33.128Z,4.90
2023-02-02T13:04:18.797Z,4.90
2023-02-02T13:07:17.947Z,5.00
2023-02-02T13:10:08.895Z,4.90
2023-02-02T13:12:42.159Z,4.90
2023-02-02T13:15:17.761Z,4.90
2023-02-02T13:17:51.996Z,4.90
2023-02-02T13:20:39.596Z,4.90
2023-02-02T13:23:33.816Z,4.90
2023-02-02T13:26:16.622Z,4.80
2023-02-02T13:29:11.609Z,4.80
2023-02-02T13:31:44.277Z,4.80
2023-02-02T13:34:35.859Z,4.80
2023-02-02T13:37:32.244Z,4.70
2023-02-02T13:40:04.190Z,4.80
2023-02-02T13:42:52.162Z,4.80
2023-02-02T13:45:43.617Z,4.80
2023-02-02T13:48:30.185Z,4.80
2023-02-02T13:51:34.555Z,4.80
2023-02-02T13:54:01.399Z,4.80
2023-02-02T13:56:38.658Z,4.80
2023-02-02T13:59:23.723Z,4.80
2023-02-02T14:01:52.350Z,4.70
2023-02-02T14:04:33.503Z,4.80
2023-02-02T14:07:07.241Z,4.80
2023-02-02T14:09:37.615Z,4.80
2023-02-02T14:12:10.451Z,4.80
2023-02-02T14:14:39.999Z,4.80
2023-02-02T14:17:19.343Z,4.70
2023-02-02T14:19:55.080Z,4.90
2023-02-02T14:22:40.528Z,4.80
2023-02-02T14:25:29.237Z,4.80
2023-02-02T14:28:01.500Z,4.80
2023-02-02T14:30:34.127Z,4.70
2023-02-02T14:33:22.767Z,4.80
2023-02-02T14:35:49.536Z,4.80
2023-02-02T14:38:53.574Z,4.80
2023-02-02T14:41:47.918Z,4.80
2023-02-02T14:44:14.675Z,4.80
2023-02-02T14:46:48.313Z,4.90
2023-02-02T14:49:27.043Z,4.90
2023-02-02T14:51:56.987Z,4.90
2023-02-02T14:54:34.625Z,5.00
2023-02-02T14:57:21.321Z,4.90
2023-02-02T14:59:48.594Z,5.00
2023-02-02T15:02:25.817Z,5.00
2023-02-02T15:05:12.599Z,5.00
2023-02-02T15:07:52.953Z,5.00
2023-02-02T15:10:45.398Z,5.10
2023-02-02T15:13:17.128Z,5.10
2023-02-02T15:15:45.460Z,5.10
2023-02-02T15:18:43.424Z,5.10
2023-02-02T15:21:15.343Z,5.10
2023-02-02T15:23:45.260Z,5.20
2023-02-02T15:26:37.472Z,5.10
2023-02-02T15:29:17.532Z,5.10
2023-02-02T15:31:51.894Z,5.00
2023-02-02T15:34:42.593Z,5.10
2023-02-02T15:37:15.876Z,5.10
2023-02-02T15:39:56.468Z,5.00
2023-02-02T15:42:49.907Z,5.10
2023-02-02T15:45:31.992Z,5.00
2023-02-02T15:48:00.232Z,5.00
2023-02-02T15:50:27.731Z,5.00
2023-02-02T15:52:57.587Z,5.00
2023-02-02T15:55:34.219Z,4.90
2023-02-02T15:58:02.491Z,5.00
2023-02-02T16:00:32.068Z,4.90
2023-02-02T16:03:23.243Z,5.00
2023-02-02T16:05:55.770Z,4.90
2023-02-02T16:08:35.248Z,5.00
2023-02-02T16:11:10.710Z,5.00
2023-02-02T16:13:39.035Z,5.00
2023-02-02T16:16:21.580Z,4.90
2023-02-02T16:19:01.222Z,4.90
2023-02-02T16:21:29.792Z,4.80
2023-02-02T16:23:58.287Z,4.90
2023-02-02T16:26:29.610Z,4.90
2023-02-02T16:28:56.957Z,4.90
2023-02-02T16:31:25.062Z,5.00
2023-02-02T16:33:51.946Z,4.90
2023-02-02T16:36:25.949Z,4.90
2023-02-02T16:38:54.448Z,4.90
2023-02-02T16:41:35.357Z,4.90
2023-02-02T16:44:40.545Z,4.90
2023-02-02T16:47:28.163Z,4.90
2023-02-02T16:50:10.083Z,4.90
2023-02-02T16:53:04.747Z,4.90
2023-02-02T16:55:49.135Z,4.90
2023-02-02T16:58:20.818Z,4.90
2023-02-02T17:01:13.586Z,4.90
2023-02-02T17:03:48.919Z,4.90
2023-02-02T17:06:15.823Z,4.80
2023-02-02T17:08:42.713Z,5.00
2023-02-02T17:11:28.667Z,4.90
2023-02-02T17:13:55.616Z,4.80
2023-02-02T17:16:24.179Z,4.80
2023-02-02T17:18:51.761Z,4.90
2023-02-02T17:21:22.801Z,4.90
2023-02-02T17:23:51.635Z,4.90
2023-02-02T17:26:18.620Z,4.90
2023-02-02T17:28:45.942Z,4.90
2023-02-02T17:31:15.155Z,4.90
2023-02-02T17:33:43.668Z,4.90
2023-02-02T17:36:14.445Z,4.90
2023-02-02T17:38:41.271Z,4.90
2023-02-02T17:41:12.415Z,5.00
2023-02-02T17:43:39.405Z,5.00
2023-02-02T17:46:06.315Z,5.20
2023-02-02T17:48:34.393Z,5.10
2023-02-02T17:51:03.350Z,5.10
2023-02-02T17:53:33.353Z,5.20
2023-02-02T17:56:00.364Z,5.10
2023-02-02T17:58:27.257Z,5.10
2023-02-02T18:00:56.708Z,5.10
2023-02-02T18:03:31.356Z,5.10
2023-02-02T18:06:04.229Z,5.10
2023-02-02T18:08:32.944Z,5.10
2023-02-02T18:10:59.984Z,5.10
2023-02-02T18:13:27.208Z,5.10
2023-02-02T18:15:56.014Z,5.00
2023-02-02T18:18:23.288Z,5.10
2023-02-02T18:20:51.092Z,5.10
2023-02-02T18:23:19.165Z,5.00
2023-02-02T18:25:46.085Z,5.00
2023-02-02T18:28:17.219Z,5.00
2023-02-02T18:30:45.367Z,5.00
2023-02-02T18:33:14.092Z,5.00
2023-02-02T18:35:45.000Z,5.00
2023-02-02T18:38:13.043Z,4.80
2023-02-02T18:40:39.847Z,5.00
2023-02-02T18:43:06.704Z,5.00
2023-02-02T18:45:33.563Z,5.00
2023-02-02T18:48:00.350Z,5.00
2023-02-02T18:50:27.220Z,4.90
2023-02-02T18:52:54.559Z,4.90
2023-02-02T18:55:21.307Z,5.00
2023-02-02T18:57:48.143Z,4.90
2023-02-02T19:00:15.779Z,4.90
2023-02-02T19:02:42.594Z,4.90
2023-02-02T19:05:28.436Z,4.90
2023-02-02T19:07:55.932Z,4.90
2023-02-02T19:10:24.792Z,4.80
2023-02-02T19:13:02.826Z,4.90
2023-02-02T19:15:33.489Z,4.90
2023-02-02T19:18:00.410Z,4.80
2023-02-02T19:20:30.852Z,4.80
2023-02-02T19:23:12.132Z,4.80
2023-02-02T19:25:50.757Z,4.80
2023-02-02T19:28:17.911Z,4.80
2023-02-02T19:30:45.478Z,4.80
2023-02-02T19:33:14.416Z,4.80
2023-02-02T19:35:45.084Z,4.80
2023-02-02T19:38:14.451Z,4.80
2023-02-02T19:40:42.770Z,4.80
2023-02-02T19:43:28.781Z,4.70
2023-02-02T19:45:59.532Z,4.70
2023-02-02T19:48:29.949Z,4.70
2023-02-02T19:50:59.016Z,4.90
2023-02-02T19:53:32.013Z,4.70
2023-02-02T19:55:58.981Z,4.70
2023-02-02T19:58:37.479Z,4.60
2023-02-02T20:01:18.617Z,4.60
2023-02-02T20:03:46.751Z,4.50
2023-02-02T20:06:22.504Z,4.70
2023-02-02T20:08:49.439Z,4.60
2023-02-02T20:11:37.191Z,4.70
2023-02-02T20:14:29.333Z,4.50
2023-02-02T20:17:14.238Z,4.50
2023-02-02T20:19:42.146Z,4.50
2023-02-02T20:22:26.852Z,4.50
2023-02-02T20:24:54.952Z,4.50
2023-02-02T20:27:26.067Z,4.40
2023-02-02T20:30:07.320Z,4.40
2023-02-02T20:32:40.990Z,4.40
2023-02-02T20:35:42.809Z,4.40
2023-02-02T20:38:35.807Z,4.30
2023-02-02T20:41:04.611Z,4.30
2023-02-02T20:43:31.850Z,4.30
2023-02-02T20:45:58.909Z,4.30
2023-02-02T20:48:27.709Z,4.20
2023-02-02T20:50:54.607Z,4.30
2023-02-02T20:53:22.435Z,4.20
2023-02-02T20:55:49.288Z,4.30
2023-02-02T20:58:16.201Z,4.20
2023-02-02T21:00:43.173Z,4.20
2023-02-02T21:03:14.373Z,4.20
2023-02-02T21:05:41.326Z,4.20
2023-02-02T21:08:08.194Z,4.20
2023-02-02T21:10:34.996Z,4.10
2023-02-02T21:13:01.797Z,4.20
2023-02-02T21:15:28.898Z,4.20
2023-02-02T21:17:55.724Z,4.20
2023-02-02T21:20:22.623Z,4.20
2023-02-02T21:22:49.749Z,4.20
2023-02-02T21:25:16.624Z,4.10
2023-02-02T21:27:44.596Z,4.10
2023-02-02T21:30:12.157Z,4.10
2023-02-02T21:32:39.211Z,4.10
2023-02-02T21:35:06.748Z,4.10
2023-02-02T21:37:37.382Z,4.20
2023-02-02T21:40:13.698Z,4.10
2023-02-02T21:42:49.598Z,4.10
2023-02-02T21:45:37.115Z,4.10
2023-02-02T21:48:21.233Z,4.00
2023-02-02T21:50:48.275Z,4.00
2023-02-02T21:53:25.854Z,4.00
2023-02-02T21:55:55.101Z,4.00
2023-02-02T21:58:31.846Z,4.00
2023-02-02T22:01:12.154Z,4.00
2023-02-02T22:03:39.404Z,4.00
2023-02-02T22:06:25.297Z,4.00
2023-02-02T22:09:01.099Z,4.00
2023-02-02T22:11:46.565Z,3.90
2023-02-02T22:14:32.809Z,3.90
2023-02-02T22:17:00.255Z,4.00
2023-02-02T22:19:34.279Z,4.00
2023-02-02T22:22:25.479Z,4.00
2023-02-02T22:25:18.372Z,4.00
2023-02-02T22:27:51.546Z,4.00
2023-02-02T22:30:42.729Z,4.00
2023-02-02T22:33:11.517Z,4.00
2023-02-02T22:35:39.015Z,4.00
2023-02-02T22:38:06.538Z,4.00
2023-02-02T22:40:33.863Z,4.00
2023-02-02T22:43:05.676Z,4.00
2023-02-02T22:45:32.647Z,4.00
2023-02-02T22:47:59.797Z,4.00
2023-02-02T22:50:29.336Z,4.10
2023-02-02T22:52:56.855Z,4.10
2023-02-02T22:55:24.572Z,4.10
2023-02-02T22:57:51.401Z,4.10
2023-02-02T23:00:21.988Z,4.10
2023-02-02T23:02:51.297Z,4.20
2023-02-02T23:05:19.803Z,4.10
2023-02-02T23:07:47.375Z,4.10
2023-02-02T23:10:17.361Z,4.20
2023-02-02T23:12:45.013Z,4.20
2023-02-02T23:15:12.125Z,4.10
2023-02-02T23:17:39.413Z,4.10
2023-02-02T23:20:08.853Z,4.20
2023-02-02T23:22:36.020Z,4.10
2023-02-02T23:25:03.132Z,4.10
2023-02-02T23:27:29.981Z,4.10
2023-02-02T23:29:56.789Z,4.20
2023-02-02T23:32:23.688Z,4.10
2023-02-02T23:34:50.547Z,4.20
2023-02-02T23:37:17.389Z,4.20
2023-02-02T23:39:44.320Z,4.10
2023-02-02T23:42:11.119Z,4.20
2023-02-02T23:44:37.904Z,4.10
2023-02-02T23:47:05.160Z,4.10
2023-02-02T23:49:32.921Z,4.10
2023-02-02T23:52:00.254Z,4.10
2023-02-02T23:54:27.558Z,4.10
2023-02-02T23:56:54.335Z,4.10
2023-02-02T23:59:21.288Z,4.10
